createdAt,value
2019-03-06T07:43:11.765Z,100539.19
2019-03-06T07:46:55.551Z,100530.77
2019-03-06T07:49:34.180Z,100527.45
2019-03-06T07:52:12.685Z,100520.17
2019-03-06T07:54:44.938Z,100514.38
2019-03-06T07:57:14.781Z,100516.04
2019-03-06T07:59:42.952Z,100513.73
2019-03-06T08:02:15.020Z,100518.37
2019-03-06T08:04:50.419Z,100506.46
2019-03-06T08:07:18.280Z,100498.67
2019-03-06T08:09:46.316Z,100499.66
2019-03-06T08:12:34.047Z,100490.72
2019-03-06T08:15:03.645Z,100494.70
2019-03-06T08:17:51.348Z,100491.06
2019-03-06T08:20:26.588Z,100481.45
2019-03-06T08:22:58.585Z,100485.77
2019-03-06T08:25:40.344Z,100480.45
2019-03-06T08:28:08.394Z,100475.83
2019-03-06T08:32:39.567Z,100474.16
2019-03-06T08:35:11.676Z,100478.80
2019-03-06T08:37:39.333Z,100472.84
2019-03-06T08:40:08.726Z,100474.16
2019-03-06T08:42:36.391Z,100475.49
2019-03-06T08:45:05.978Z,100469.53
2019-03-06T08:47:36.925Z,100462.58
2019-03-06T08:50:07.640Z,100461.58
2019-03-06T08:52:37.295Z,100462.57
2019-03-06T08:55:13.059Z,100454.92
2019-03-06T08:57:44.187Z,100454.63
2019-03-06T09:00:19.211Z,100457.57
2019-03-06T09:02:50.821Z,100450.94
2019-03-06T09:05:20.318Z,100445.30
2019-03-06T09:07:54.954Z,100447.61
2019-03-06T09:10:26.463Z,100439.31
2019-03-06T09:13:15.146Z,100441.92
2019-03-06T09:16:02.838Z,100441.23
2019-03-06T09:18:42.788Z,100433.25
2019-03-06T09:21:22.876Z,100423.42
2019-03-06T09:24:12.142Z,100419.23
2019-03-06T09:26:42.852Z,100415.88
2019-03-06T09:29:19.834Z,100412.83
2019-03-06T09:31:53.592Z,100410.76
2019-03-06T09:34:37.988Z,100407.22
2019-03-06T09:37:11.828Z,100386.25
2019-03-06T09:39:55.652Z,100384.77
2019-03-06T09:42:35.040Z,100381.44
2019-03-06T09:45:10.557Z,100383.57
2019-03-06T09:47:46.607Z,100378.75
2019-03-06T09:50:19.727Z,100361.42
2019-03-06T09:53:05.294Z,100350.77
2019-03-06T09:55:35.792Z,100338.11
2019-03-06T09:58:11.550Z,100321.10
2019-03-06T10:00:50.812Z,100337.45
2019-03-06T10:03:22.532Z,100334.20
2019-03-06T10:06:10.192Z,100341.49
2019-03-06T10:08:49.211Z,100336.47
2019-03-06T10:11:39.894Z,100343.88
2019-03-06T10:14:21.871Z,100343.03
2019-03-06T10:16:55.001Z,100342.47
2019-03-06T10:19:24.885Z,100330.27
2019-03-06T10:21:54.525Z,100330.50
2019-03-06T10:24:25.347Z,100327.77
2019-03-06T10:26:54.351Z,100322.35
2019-03-06T10:29:22.673Z,100318.39
2019-03-06T10:31:51.491Z,100313.78
2019-03-06T10:34:20.770Z,100308.73
2019-03-06T10:36:48.764Z,100310.64
2019-03-06T10:39:16.440Z,100312.56
2019-03-06T10:41:44.205Z,100301.52
2019-03-06T10:44:12.210Z,100303.80
2019-03-06T10:46:39.987Z,100302.73
2019-03-06T10:49:08.091Z,100288.36
2019-03-06T10:51:35.795Z,100284.63
2019-03-06T10:54:04.447Z,100291.02
2019-03-06T10:56:32.403Z,100288.77
2019-03-06T10:59:00.784Z,100286.58
2019-03-06T11:01:28.766Z,100277.45
2019-03-06T11:04:01.065Z,100270.03
2019-03-06T11:06:28.768Z,100270.71
2019-03-06T11:08:56.861Z,100269.67
2019-03-06T11:11:24.565Z,100268.13
2019-03-06T11:13:52.966Z,100253.64
2019-03-06T11:16:25.475Z,100242.12
2019-03-06T11:18:53.864Z,100235.62
2019-03-06T11:21:21.886Z,100227.02
2019-03-06T11:23:49.730Z,100219.86
2019-03-06T11:26:19.228Z,100216.80
2019-03-06T11:28:47.175Z,100208.41
2019-03-06T11:31:15.228Z,100207.08
2019-03-06T11:33:47.960Z,100209.94
2019-03-06T11:36:19.048Z,100197.55
2019-03-06T11:38:51.992Z,100192.13
2019-03-06T11:41:23.383Z,100187.73
2019-03-06T11:43:52.339Z,100178.00
2019-03-06T11:46:32.991Z,100173.60
2019-03-06T11:49:01.677Z,100163.87
2019-03-06T11:51:31.234Z,100157.73
2019-03-06T11:54:02.297Z,100156.50
2019-03-06T11:56:34.906Z,100156.13
2019-03-06T12:01:54.091Z,100151.63
2019-03-06T12:04:23.191Z,100152.44
2019-03-06T12:06:53.309Z,100143.83
2019-03-06T12:09:31.720Z,100128.62
2019-03-06T12:12:00.282Z,100135.30
2019-03-06T12:14:32.684Z,100129.64
2019-03-06T12:17:20.006Z,100131.10
2019-03-06T12:19:50.549Z,100119.39
2019-03-06T12:22:20.444Z,100118.55
2019-03-06T12:24:55.751Z,100102.45
2019-03-06T12:27:21.409Z,100105.63
2019-03-06T12:29:50.915Z,100098.65
2019-03-06T12:32:18.758Z,100104.08
2019-03-06T12:34:46.562Z,100095.33
2019-03-06T12:37:14.373Z,100084.08
2019-03-06T12:39:42.234Z,100076.97
2019-03-06T12:42:14.258Z,100072.03
2019-03-06T12:44:40.171Z,100066.70
2019-03-06T12:47:07.941Z,100052.55
2019-03-06T12:49:35.703Z,100038.38
2019-03-06T12:52:03.684Z,100023.28
2019-03-06T12:54:31.459Z,100012.02
2019-03-06T12:56:59.523Z,99998.76
2019-03-06T12:59:27.457Z,99994.96
2019-03-06T13:01:55.540Z,99989.52
2019-03-06T13:04:23.211Z,99992.08
2019-03-06T13:06:51.179Z,99987.63
2019-03-06T13:09:19.169Z,99970.28
2019-03-06T13:11:46.886Z,99969.66
2019-03-06T13:14:14.598Z,99962.99
2019-03-06T13:16:42.557Z,99946.48
2019-03-06T13:19:10.668Z,99947.89
2019-03-06T13:21:38.641Z,99947.78
2019-03-06T13:24:06.381Z,99937.84
2019-03-06T13:26:34.364Z,99928.57
2019-03-06T13:29:01.986Z,99930.52
2019-03-06T13:31:29.997Z,99925.98
2019-03-06T13:33:59.328Z,99920.87
2019-03-06T13:36:26.944Z,99910.91
2019-03-06T13:39:03.048Z,99909.58
2019-03-06T13:41:23.908Z,99909.58
2019-03-06T13:43:51.601Z,99894.89
2019-03-06T13:46:19.667Z,99884.82
2019-03-06T13:48:47.936Z,99887.07
2019-03-06T13:51:15.564Z,99876.77
2019-03-06T13:53:43.478Z,99877.19
2019-03-06T13:56:11.190Z,99868.45
2019-03-06T13:58:39.206Z,99860.44
2019-03-06T14:01:07.984Z,99839.38
2019-03-06T14:03:35.664Z,99850.06
2019-03-06T14:06:03.308Z,99840.41
2019-03-06T14:08:31.049Z,99843.39
2019-03-06T14:10:58.937Z,99844.49
2019-03-06T14:13:26.919Z,99844.88
2019-03-06T14:15:54.989Z,99840.02
2019-03-06T14:18:22.801Z,99832.06
2019-03-06T14:20:50.918Z,99834.22
2019-03-06T14:23:18.677Z,99814.12
2019-03-06T14:25:46.741Z,99814.06
2019-03-06T14:28:15.892Z,99812.91
2019-03-06T14:30:44.685Z,99806.09
2019-03-06T14:33:14.327Z,99801.42
2019-03-06T14:35:44.306Z,99806.88
2019-03-06T14:38:14.117Z,99797.08
2019-03-06T14:40:44.445Z,99781.64
2019-03-06T14:43:12.211Z,99785.95
2019-03-06T14:45:39.871Z,99776.30
2019-03-06T14:48:09.961Z,99774.66
2019-03-06T14:50:37.741Z,99767.67
2019-03-06T14:53:10.882Z,99754.02
2019-03-06T14:55:40.746Z,99751.34
2019-03-06T14:58:08.507Z,99745.89
2019-03-06T15:00:36.386Z,99742.12
2019-03-06T15:03:07.600Z,99737.08
2019-03-06T15:05:37.270Z,99734.91
2019-03-06T15:08:06.352Z,99725.55
2019-03-06T15:10:42.856Z,99707.67
2019-03-06T15:13:08.131Z,99692.38
2019-03-06T15:15:35.845Z,99698.45
2019-03-06T15:18:10.334Z,99705.44
2019-03-06T15:20:32.957Z,99693.11
2019-03-06T15:23:02.745Z,99685.09
2019-03-06T15:25:31.007Z,99683.45
2019-03-06T15:27:59.294Z,99679.14
2019-03-06T15:30:26.955Z,99675.88
2019-03-06T15:32:55.015Z,99674.67
2019-03-06T15:35:23.467Z,99671.41
2019-03-06T15:37:51.611Z,99656.84
2019-03-06T15:40:22.467Z,99664.56
2019-03-06T15:42:50.471Z,99665.09
2019-03-06T15:45:21.496Z,99664.30
2019-03-06T15:47:49.590Z,99663.69
2019-03-06T15:50:17.868Z,99663.09
2019-03-06T15:52:46.045Z,99658.39
2019-03-06T15:55:14.344Z,99653.68
2019-03-06T15:57:42.891Z,99656.72
2019-03-06T16:00:16.808Z,99659.73
2019-03-06T16:02:44.722Z,99653.34
2019-03-06T16:05:19.001Z,99648.27
2019-03-06T16:07:46.832Z,99641.42
2019-03-06T16:10:15.377Z,99637.25
2019-03-06T16:12:43.681Z,99631.23
2019-03-06T16:15:11.518Z,99630.53
2019-03-06T16:17:39.462Z,99639.88
2019-03-06T16:20:08.949Z,99635.87
2019-03-06T16:22:36.631Z,99634.23
2019-03-06T16:25:04.732Z,99641.64
2019-03-06T16:27:32.507Z,99650.41
2019-03-06T16:30:00.345Z,99642.23
2019-03-06T16:32:28.290Z,99654.67
2019-03-06T16:34:56.362Z,99662.80
2019-03-06T16:37:24.034Z,99647.22
2019-03-06T16:39:51.784Z,99648.06
2019-03-06T16:42:19.459Z,99648.49
2019-03-06T16:44:47.423Z,99646.25
2019-03-06T16:47:15.090Z,99636.84
2019-03-06T16:49:42.852Z,99625.87
2019-03-06T16:52:11.443Z,99625.80
2019-03-06T16:54:39.139Z,99630.52
2019-03-06T16:57:07.623Z,99617.31
2019-03-06T16:59:35.349Z,99635.25
2019-03-06T17:02:03.652Z,99629.31
2019-03-06T17:04:31.451Z,99621.31
2019-03-06T17:07:01.940Z,99635.98
2019-03-06T17:09:29.688Z,99631.98
2019-03-06T17:11:57.368Z,99617.81
2019-03-06T17:14:25.148Z,99627.98
2019-03-06T17:16:52.835Z,99625.61
2019-03-06T17:19:20.726Z,99624.58
2019-03-06T17:21:48.797Z,99620.28
2019-03-06T17:24:16.396Z,99620.28
2019-03-06T17:26:44.081Z,99619.25
2019-03-06T17:29:12.270Z,99625.38
2019-03-06T17:31:40.263Z,99619.45
2019-03-06T17:34:08.235Z,99624.40
2019-03-06T17:36:36.142Z,99630.16
2019-03-06T17:39:04.765Z,99632.22
2019-03-06T17:41:32.533Z,99629.17
2019-03-06T17:44:00.216Z,99635.43
2019-03-06T17:46:28.301Z,99606.52
2019-03-06T17:48:56.169Z,99618.95
2019-03-06T17:51:24.333Z,99636.70
2019-03-06T17:53:51.964Z,99627.82
2019-03-06T17:56:19.692Z,99624.55
2019-03-06T17:58:47.714Z,99626.91
2019-03-06T18:01:16.977Z,99617.47
2019-03-06T18:03:46.314Z,99613.09
2019-03-06T18:06:14.413Z,99604.67
2019-03-06T18:08:42.127Z,99594.47
2019-03-06T18:11:09.829Z,99597.75
2019-03-06T18:13:37.445Z,99602.77
2019-03-06T18:16:05.460Z,99595.50
2019-03-06T18:18:33.160Z,99592.42
2019-03-06T18:21:01.091Z,99590.66
2019-03-06T18:23:29.131Z,99580.84
2019-03-06T18:25:56.877Z,99576.61
2019-03-06T18:28:24.534Z,99564.92
2019-03-06T18:30:52.560Z,99564.84
2019-03-06T18:33:20.188Z,99556.31
2019-03-06T18:35:48.091Z,99544.63
2019-03-06T18:38:16.055Z,99554.68
2019-03-06T18:40:44.349Z,99540.44
2019-03-06T18:43:12.295Z,99539.84
2019-03-06T18:45:41.479Z,99543.23
2019-03-06T18:48:09.150Z,99541.21
2019-03-06T18:50:36.877Z,99530.17
2019-03-06T18:53:04.783Z,99541.22
2019-03-06T18:55:32.778Z,99531.89
2019-03-06T18:58:00.554Z,99529.23
2019-03-06T19:00:29.224Z,99532.92
2019-03-06T19:02:56.946Z,99528.09
2019-03-06T19:05:24.626Z,99524.62
2019-03-06T19:07:52.601Z,99515.30
2019-03-06T19:10:21.002Z,99520.33
2019-03-06T19:12:48.847Z,99521.97
2019-03-06T19:15:18.130Z,99516.64
2019-03-06T19:17:45.816Z,99519.91
2019-03-06T19:20:14.931Z,99521.23
2019-03-06T19:22:42.657Z,99513.05
2019-03-06T19:25:11.894Z,99517.88
2019-03-06T19:27:40.071Z,99517.88
2019-03-06T19:30:09.663Z,99522.18
2019-03-06T19:32:37.402Z,99515.82
2019-03-06T19:35:06.053Z,99518.48
2019-03-06T19:37:34.085Z,99511.52
2019-03-06T19:42:08.682Z,99506.03
2019-03-06T19:44:37.122Z,99510.69
2019-03-06T19:47:05.653Z,99494.70
2019-03-06T19:49:34.388Z,99504.86
2019-03-06T19:52:02.811Z,99495.53
2019-03-06T19:54:31.209Z,99488.14
2019-03-06T19:56:59.938Z,99484.41
2019-03-06T19:59:28.621Z,99477.02
2019-03-06T20:01:57.413Z,99477.63
2019-03-06T20:04:25.827Z,99482.16
2019-03-06T20:06:54.392Z,99482.66
2019-03-06T20:09:25.853Z,99475.19
2019-03-06T20:11:54.820Z,99474.36
2019-03-06T20:14:23.290Z,99472.30
2019-03-06T20:16:51.708Z,99457.95
2019-03-06T20:19:20.457Z,99455.88
2019-03-06T20:21:49.137Z,99451.75
2019-03-06T20:24:17.842Z,99448.66
2019-03-06T20:26:46.325Z,99452.23
2019-03-06T20:29:15.111Z,99444.01
2019-03-06T20:31:43.516Z,99438.77
2019-03-06T20:34:12.281Z,99433.75
2019-03-06T20:36:40.688Z,99435.68
2019-03-06T20:39:10.501Z,99421.31
2019-03-06T20:41:39.345Z,99426.95
2019-03-06T20:44:08.204Z,99419.45
2019-03-06T20:46:36.902Z,99418.42
2019-03-06T20:49:05.504Z,99413.39
2019-03-06T20:51:33.912Z,99405.48
2019-03-06T20:54:02.616Z,99412.22
2019-03-06T20:56:31.001Z,99411.99
2019-03-06T20:58:59.691Z,99401.03
2019-03-06T21:01:28.349Z,99406.16
2019-03-06T21:03:56.742Z,99393.13
2019-03-06T21:06:33.201Z,99398.22
2019-03-06T21:08:55.646Z,99390.02
2019-03-06T21:11:24.089Z,99382.52
2019-03-06T21:13:52.477Z,99378.53
2019-03-06T21:16:21.383Z,99378.09
2019-03-06T21:18:49.816Z,99377.36
2019-03-06T21:21:18.226Z,99377.66
2019-03-06T21:23:46.940Z,99377.45
2019-03-06T21:26:15.326Z,99375.59
2019-03-06T21:28:43.732Z,99366.85
2019-03-06T21:31:12.126Z,99362.84
2019-03-06T21:33:40.853Z,99370.11
2019-03-06T21:36:09.540Z,99369.37
2019-03-06T21:38:37.964Z,99368.34
2019-03-06T21:41:06.350Z,99361.97
2019-03-06T21:43:34.761Z,99366.88
2019-03-06T21:46:03.160Z,99367.17
2019-03-06T21:48:31.890Z,99370.44
2019-03-06T21:51:00.288Z,99352.66
2019-03-06T21:53:33.159Z,99351.59
2019-03-06T21:56:01.987Z,99358.85
2019-03-06T21:58:30.789Z,99355.45
2019-03-06T22:00:59.579Z,99352.34
2019-03-06T22:03:27.985Z,99350.27
2019-03-06T22:05:59.420Z,99342.56
2019-03-06T22:08:28.090Z,99348.79
2019-03-06T22:10:56.776Z,99336.28
2019-03-06T22:13:26.896Z,99336.04
2019-03-06T22:15:55.275Z,99338.71
2019-03-06T22:18:23.970Z,99330.70
2019-03-06T22:20:52.662Z,99330.41
2019-03-06T22:23:21.056Z,99329.67
2019-03-06T22:25:49.535Z,99336.64
2019-03-06T22:28:17.934Z,99323.59
2019-03-06T22:30:49.636Z,99313.52
2019-03-06T22:33:18.740Z,99319.14
2019-03-06T22:35:47.436Z,99324.04
2019-03-06T22:38:15.848Z,99316.63
2019-03-06T22:40:44.696Z,99318.55
2019-03-06T22:43:15.913Z,99316.98
2019-03-06T22:45:44.635Z,99327.45
2019-03-06T22:48:13.029Z,99317.34
2019-03-06T22:50:41.698Z,99313.63
2019-03-06T22:53:10.113Z,99309.13
2019-03-06T22:55:38.885Z,99310.52
2019-03-06T22:58:07.298Z,99299.39
2019-03-06T23:00:45.757Z,99302.14
2019-03-06T23:03:15.117Z,99298.94
2019-03-06T23:05:43.847Z,99294.19
2019-03-06T23:08:12.675Z,99290.48
2019-03-06T23:10:41.173Z,99291.08
2019-03-06T23:13:09.577Z,99280.69
2019-03-06T23:15:37.965Z,99289.00
2019-03-06T23:18:06.872Z,99286.09
2019-03-06T23:20:35.626Z,99283.95
2019-03-06T23:23:04.067Z,99291.22
2019-03-06T23:25:32.584Z,99283.80
2019-03-06T23:28:01.317Z,99276.97
2019-03-06T23:30:32.683Z,99271.17
2019-03-06T23:33:01.093Z,99265.89
2019-03-06T23:35:29.501Z,99264.31
2019-03-06T23:37:57.975Z,99266.98
2019-03-06T23:40:26.382Z,99266.69
2019-03-06T23:42:54.802Z,99260.25
2019-03-06T23:45:23.508Z,99260.49
2019-03-06T23:47:52.224Z,99257.83
2019-03-06T23:50:20.705Z,99253.52
2019-03-06T23:53:08.554Z,99249.22
2019-03-06T23:55:37.240Z,99252.94
2019-03-06T23:58:06.119Z,99243.00
